SWO VIRTUAL AIRLINE

SWO VIRTUAL AIRLINES Eine deutsche virtuelle Airline für jeden Sim-Pilot




 METAR AND TAF INFORMATION
METAR FOR LOWI
ADDS - METARS form results

(1659 UTC 18 February 2019)
Data provider http://aviationweather.gov/metar/data/
 
METAR text: LOWI 181650Z VRB02KT CAVOK 05/M03 Q1019 NOSIG
Conditions at: LOWI (INNSBRUCK AIRPOR, AT) observed 1650 UTC 18 February 2019
Temperature: 5.0°C (41°F)
Dewpoint: -3.0°C (27°F) [RH = 56%]
Pressure (altimeter): 30.09 inches Hg (1019.0 mb)
Winds: variable direction winds at 2 MPH (2 knots; 1.0 m/s)
Visibility: 6 or more miles (10+ km)
Ceiling: ceiling and visibility are OK
Clouds: unknown
Weather: no significant weather observed at this time

METAR text: LOWI 181620Z 13003KT 090V160 CAVOK 08/M03 Q1019 NOSIG
Conditions at: LOWI (INNSBRUCK AIRPOR, AT) observed 1620 UTC 18 February 2019
Temperature: 8.0°C (46°F)
Dewpoint: -3.0°C (27°F) [RH = 46%]
Pressure (altimeter): 30.09 inches Hg (1019.0 mb)
Winds: from the SE (130 degrees) at 3 MPH (3 knots; 1.5 m/s)
Visibility: 6 or more miles (10+ km)
Ceiling: ceiling and visibility are OK
Clouds: unknown
Weather: no significant weather observed at this time

Forecast for: LOWI (INNSBRUCK AIRPOR, AT)
Text: TAF LOWI 181115Z 1812/1912 27005KT CAVOK TX13/1814Z TNM04/1906Z
Forecast period: 1200 UTC 18 February 2019 to 1200 UTC 19 February 2019
Forecast type: FROM: standard forecast or significant change
Winds: from the W (270 degrees) at 6 MPH (5 knots; 2.6 m/s)
Visibility: 6 or more miles 10+ km)
Ceiling: unknown
Clouds: missing
Weather: no significant weather forecast for this period

 AIRPORT MAP

 RUNWAY INFORMATION
Runway 08 Runway length 6562 ft Runway width 148 ft
Runway elevation 1906 ft Runway displaced threshold 339 ft Runway heading 81
Runway 26 Runway length 6562 ft Runway width 148 ft
Runway elevation 1893 ft Runway displaced threshold 198 ft Runway heading 261

 AIRPORT FREQUENCIES
Type APP Name APP Frequency 119.275 MHZ
Type ATIS Name ATIS Frequency 126.025 MHZ
Type GND Crew Name Frequency 121.8 MHZ
Type GND Crew Name Frequency 121.9 MHZ
Type TWR Name TWR Frequency 120.1 MHZ

 AIRPORT NEAR NAVIGATION AIDS
Type NDB Name Innsbruck Frequency 420 KHZ
Type NDB Name Kuhtai Frequency 413 KHZ